Aviation Digital Data Service (ADDS)

Output produced by METARs form (0904 UTC 19 April 2019)
found at http://www.aviationweather.gov/metar/data/
 
METAR text: UIII 190830Z 31006MPS 280V340 CAVOK 05/M11 Q1016 R30/60D NOSIG RMK QFE717/0956
Conditions at: UIII (IRKUTSK , RU) observed 0830 UTC 19 April 2019
Temperature: 5.0°C (41°F)
Dewpoint: -11.0°C (12°F) [RH = 30%]
Pressure (altimeter): 30.00 inches Hg (1016.0 mb)
Winds: from the NW (310 degrees) at 14 MPH (12 knots; 6.2 m/s)
Visibility: 6 or more miles (10+ km)
Ceiling: ceiling and visibility are OK
Clouds: unknown
Weather: no significant weather observed at this time

METAR text: UIII 190800Z 33006G11MPS 300V360 CAVOK 04/M10 Q1016 R30/60D NOSIG RMK QFE717/0956
Conditions at: UIII (IRKUTSK , RU) observed 0800 UTC 19 April 2019
Temperature: 4.0°C (39°F)
Dewpoint: -10.0°C (14°F) [RH = 35%]
Pressure (altimeter): 30.00 inches Hg (1016.0 mb)
Winds: from the NNW (330 degrees) at 14 MPH (12 knots; 6.2 m/s)
gusting to 24 MPH (21 knots; 10.8 m/s)
Visibility: 6 or more miles (10+ km)
Ceiling: ceiling and visibility are OK
Clouds: unknown
Weather: no significant weather observed at this time

METAR text: UIII 190730Z 32006MPS CAVOK 03/M10 Q1015 R30/CLRD60 NOSIG RMK QFE717/0956
Conditions at: UIII (IRKUTSK , RU) observed 0730 UTC 19 April 2019
Temperature: 3.0°C (37°F)
Dewpoint: -10.0°C (14°F) [RH = 38%]
Pressure (altimeter): 29.97 inches Hg (1015.0 mb)
Winds: from the NW (320 degrees) at 14 MPH (12 knots; 6.2 m/s)
Visibility: 6 or more miles (10+ km)
Ceiling: ceiling and visibility are OK
Clouds: unknown
Weather: no significant weather observed at this time

METAR text: UIII 190700Z 31007MPS 280V340 CAVOK 03/M09 Q1015 R30/CLRD60 NOSIG RMK QFE717/0956
Conditions at: UIII (IRKUTSK , RU) observed 0700 UTC 19 April 2019
Temperature: 3.0°C (37°F)
Dewpoint: -9.0°C (16°F) [RH = 41%]
Pressure (altimeter): 29.97 inches Hg (1015.0 mb)
Winds: from the NW (310 degrees) at 16 MPH (14 knots; 7.2 m/s)
Visibility: 6 or more miles (10+ km)
Ceiling: ceiling and visibility are OK
Clouds: unknown
Weather: no significant weather observed at this time

METAR text: UIII 190630Z 31008MPS 270V340 CAVOK 03/M10 Q1015 R30/60D NOSIG RMK QFE716/0955
Conditions at: UIII (IRKUTSK , RU) observed 0630 UTC 19 April 2019
Temperature: 3.0°C (37°F)
Dewpoint: -10.0°C (14°F) [RH = 38%]
Pressure (altimeter): 29.97 inches Hg (1015.0 mb)
Winds: from the NW (310 degrees) at 18 MPH (16 knots; 8.2 m/s)
Visibility: 6 or more miles (10+ km)
Ceiling: ceiling and visibility are OK
Clouds: unknown
Weather: no significant weather observed at this time

METAR text: UIII 190600Z 31007MPS CAVOK 02/M08 Q1015 R30/CLRD60 NOSIG RMK QFE716/0955
Conditions at: UIII (IRKUTSK , RU) observed 0600 UTC 19 April 2019
Temperature: 2.0°C (36°F)
Dewpoint: -8.0°C (18°F) [RH = 47%]
Pressure (altimeter): 29.97 inches Hg (1015.0 mb)
Winds: from the NW (310 degrees) at 16 MPH (14 knots; 7.2 m/s)
Visibility: 6 or more miles (10+ km)
Ceiling: ceiling and visibility are OK
Clouds: unknown
Weather: no significant weather observed at this time

METAR text: UIII 190530Z 30005MPS 260V340 CAVOK 00/M06 Q1015 R30/290150 NOSIG RMK QFE716/0955
Conditions at: UIII (IRKUTSK , RU) observed 0530 UTC 19 April 2019
Temperature: 0.0°C (32°F)
Dewpoint: -6.0°C (21°F) [RH = 64%]
Pressure (altimeter): 29.97 inches Hg (1015.0 mb)
Winds: from the WNW (300 degrees) at 12 MPH (10 knots; 5.1 m/s)
Visibility: 6 or more miles (10+ km)
Ceiling: ceiling and visibility are OK
Clouds: unknown
Weather: no significant weather observed at this time

METAR text: UIII 190500Z 31006MPS 290V350 9999 SCT028 M01/M05 Q1015 R30/290150 NOSIG RMK QFE717/0956
Conditions at: UIII (IRKUTSK , RU) observed 0500 UTC 19 April 2019
Temperature: -1.0°C (30°F)
Dewpoint: -5.0°C (23°F) [RH = 74%]
Pressure (altimeter): 29.97 inches Hg (1015.0 mb)
Winds: from the NW (310 degrees) at 14 MPH (12 knots; 6.2 m/s)
Visibility: 6 or more miles (10+ km)
Ceiling: at least 12,000 feet AGL
Clouds: scattered clouds at 2800 feet AGL
Weather: no significant weather observed at this time

METAR text: UIII 190430Z 35009G15MPS 9999 BKN026CB M02/M06 Q1015 R30/290150 NOSIG RMK QFE717/0956
Conditions at: UIII (IRKUTSK , RU) observed 0430 UTC 19 April 2019
Temperature: -2.0°C (28°F)
Dewpoint: -6.0°C (21°F) [RH = 74%]
Pressure (altimeter): 29.97 inches Hg (1015.0 mb)
Winds: from the N (350 degrees) at 20 MPH (17 knots; 8.7 m/s)
gusting to 33 MPH (29 knots; 14.9 m/s)
Visibility: 6 or more miles (10+ km)
Ceiling: 2600 feet AGL
Clouds: broken clouds at 2600 feet AGL
Weather: no significant weather observed at this time

METAR text: UIII 190400Z 34010MPS 5000 2100SE -SHSN BKN019CB M02/M04 Q1015 R30/290150 NOSIG RMK QFE716/0955
Conditions at: UIII (IRKUTSK , RU) observed 0400 UTC 19 April 2019
Temperature: -2.0°C (28°F)
Dewpoint: -4.0°C (25°F) [RH = 86%]
Pressure (altimeter): 29.97 inches Hg (1015.0 mb)
Winds: from the NNW (340 degrees) at 22 MPH (19 knots; 9.8 m/s)
Visibility: 3 miles ( 5 km)
Ceiling: 1900 feet AGL
Clouds: broken clouds at 1900 feet AGL
Weather: -SHSN  (light snow showers)

METAR text: UIII 190330Z 34009MPS 9999 -SHSN BKN024CB M01/M06 Q1013 R30/290150 NOSIG RMK QFE715/0953
Conditions at: UIII (IRKUTSK , RU) observed 0330 UTC 19 April 2019
Temperature: -1.0°C (30°F)
Dewpoint: -6.0°C (21°F) [RH = 69%]
Pressure (altimeter): 29.91 inches Hg (1013.0 mb)
Winds: from the NNW (340 degrees) at 20 MPH (17 knots; 8.7 m/s)
Visibility: 6 or more miles (10+ km)
Ceiling: 2400 feet AGL
Clouds: broken clouds at 2400 feet AGL
Weather: -SHSN  (light snow showers)

METAR text: UIII 190300Z 33008MPS 9999 BKN025CB M01/M06 Q1012 R30/290150 NOSIG RMK QFE714/0953
Conditions at: UIII (IRKUTSK , RU) observed 0300 UTC 19 April 2019
Temperature: -1.0°C (30°F)
Dewpoint: -6.0°C (21°F) [RH = 69%]
Pressure (altimeter): 29.88 inches Hg (1012.0 mb)
Winds: from the NNW (330 degrees) at 18 MPH (16 knots; 8.2 m/s)
Visibility: 6 or more miles (10+ km)
Ceiling: 2500 feet AGL
Clouds: broken clouds at 2500 feet AGL
Weather: no significant weather observed at this time

METAR text: UIII 190230Z 31010MPS 9999 -SHSN BKN029CB M00/M05 Q1011 R30/290150 NOSIG RMK QFE714/0952
Conditions at: UIII (IRKUTSK , RU) observed 0230 UTC 19 April 2019
Temperature: 0.0°C (32°F)
Dewpoint: -5.0°C (23°F) [RH = 69%]
Pressure (altimeter): 29.85 inches Hg (1011.0 mb)
Winds: from the NW (310 degrees) at 22 MPH (19 knots; 9.8 m/s)
Visibility: 6 or more miles (10+ km)
Ceiling: 2900 feet AGL
Clouds: broken clouds at 2900 feet AGL
Weather: -SHSN  (light snow showers)

METAR text: UIII 190200Z 30007MPS 9999 BKN030CB 00/M04 Q1011 R30/290150 NOSIG RMK QFE713/0951
Conditions at: UIII (IRKUTSK , RU) observed 0200 UTC 19 April 2019
Temperature: 0.0°C (32°F)
Dewpoint: -4.0°C (25°F) [RH = 74%]
Pressure (altimeter): 29.85 inches Hg (1011.0 mb)
Winds: from the WNW (300 degrees) at 16 MPH (14 knots; 7.2 m/s)
Visibility: 6 or more miles (10+ km)
Ceiling: 3000 feet AGL
Clouds: broken clouds at 3000 feet AGL
Weather: no significant weather observed at this time

METAR text: UIII 190130Z 29005MPS 9999 BKN046CB M00/M03 Q1010 R30/290150 NOSIG RMK QFE713/0951
Conditions at: UIII (IRKUTSK , RU) observed 0130 UTC 19 April 2019
Temperature: 0.0°C (32°F)
Dewpoint: -3.0°C (27°F) [RH = 80%]
Pressure (altimeter): 29.82 inches Hg (1010.0 mb)
Winds: from the WNW (290 degrees) at 12 MPH (10 knots; 5.1 m/s)
Visibility: 6 or more miles (10+ km)
Ceiling: 4600 feet AGL
Clouds: broken clouds at 4600 feet AGL
Weather: no significant weather observed at this time

METAR text: UIII 190100Z 28005MPS 9999 BKN013CB M00/M02 Q1010 R30/620350 NOSIG RMK QFE713/0951
Conditions at: UIII (IRKUTSK , RU) observed 0100 UTC 19 April 2019
Temperature: 0.0°C (32°F)
Dewpoint: -2.0°C (28°F) [RH = 86%]
Pressure (altimeter): 29.82 inches Hg (1010.0 mb)
Winds: from the W (280 degrees) at 12 MPH (10 knots; 5.1 m/s)
Visibility: 6 or more miles (10+ km)
Ceiling: 1300 feet AGL
Clouds: broken clouds at 1300 feet AGL
Weather: no significant weather observed at this time

METAR text: UIII 190030Z 28004MPS 9999 BKN046CB M01/M03 Q1009 R30/620350 NOSIG RMK QFE712/0950
Conditions at: UIII (IRKUTSK , RU) observed 0030 UTC 19 April 2019
Temperature: -1.0°C (30°F)
Dewpoint: -3.0°C (27°F) [RH = 86%]
Pressure (altimeter): 29.79 inches Hg (1009.0 mb)
Winds: from the W (280 degrees) at 9 MPH (8 knots; 4.1 m/s)
Visibility: 6 or more miles (10+ km)
Ceiling: 4600 feet AGL
Clouds: broken clouds at 4600 feet AGL
Weather: no significant weather observed at this time

METAR text: UIII 190000Z 31004MPS 9999 -SHSN BKN029CB M01/M02 Q1009 R30/620350 NOSIG RMK QFE712/0950
Conditions at: UIII (IRKUTSK , RU) observed 0000 UTC 19 April 2019
Temperature: -1.0°C (30°F)
Dewpoint: -2.0°C (28°F) [RH = 93%]
Pressure (altimeter): 29.79 inches Hg (1009.0 mb)
Winds: from the NW (310 degrees) at 9 MPH (8 knots; 4.1 m/s)
Visibility: 6 or more miles (10+ km)
Ceiling: 2900 feet AGL
Clouds: broken clouds at 2900 feet AGL
Weather: -SHSN  (light snow showers)

METAR text: UIII 182330Z 31005MPS 9999 -SHSN BKN019CB M01/M02 Q1008 RESHSN R30/620350 NOSIG RMK QFE712/0949
Conditions at: UIII (IRKUTSK , RU) observed 2330 UTC 18 April 2019
Temperature: -1.0°C (30°F)
Dewpoint: -2.0°C (28°F) [RH = 93%]
Pressure (altimeter): 29.76 inches Hg (1008.0 mb)
Winds: from the NW (310 degrees) at 12 MPH (10 knots; 5.1 m/s)
Visibility: 6 or more miles (10+ km)
Ceiling: 1900 feet AGL
Clouds: broken clouds at 1900 feet AGL
Weather: -SHSN  (light snow showers)

METAR text: UIII 182300Z 30006MPS 5000 -SHSN OVC005CB M01/M01 Q1008 RESHSN R30/290150 NOSIG RMK QBB160 QFE712/0949
Conditions at: UIII (IRKUTSK , RU) observed 2300 UTC 18 April 2019
Temperature: -1.0°C (30°F)
Dewpoint: -1.0°C (30°F) [RH = 100%]
Pressure (altimeter): 29.76 inches Hg (1008.0 mb)
Winds: from the WNW (300 degrees) at 14 MPH (12 knots; 6.2 m/s)
Visibility: 3 miles ( 5 km)
Ceiling: 500 feet AGL
Clouds: overcast cloud deck at 500 feet AGL
Weather: -SHSN  (light snow showers)

METAR text: UIII 182230Z 32006MPS 0700 0650S R30/1000D +SHSN VV004 M01/M01 Q1007 R30/290150 NOSIG RMK QBB140 QFE711/0948
Conditions at: UIII (IRKUTSK , RU) observed 2230 UTC 18 April 2019
Temperature: -1.0°C (30°F)
Dewpoint: -1.0°C (30°F) [RH = 100%]
Pressure (altimeter): 29.73 inches Hg (1007.0 mb)
Winds: from the NW (320 degrees) at 14 MPH (12 knots; 6.2 m/s)
Visibility: 0.43 miles (0.69 km)
Ceiling: indefinite ceiling with vertical visibility of 400 feet AGL
Clouds: obscured sky
Weather: +SHSN  (heavy snow showers)

METAR text: UIII 182200Z 31008MPS 2300 1400NW SHSN OVC020CB M00/M01 Q1006 R30/60D NOSIG RMK QFE710/0947
Conditions at: UIII (IRKUTSK , RU) observed 2200 UTC 18 April 2019
Temperature: 0.0°C (32°F)
Dewpoint: -1.0°C (30°F) [RH = 93%]
Pressure (altimeter): 29.70 inches Hg (1006.0 mb)
Winds: from the NW (310 degrees) at 18 MPH (16 knots; 8.2 m/s)
Visibility: 1.43 miles (2.30 km)
Ceiling: 2000 feet AGL
Clouds: overcast cloud deck at 2000 feet AGL
Weather: SHSN  (snow showers)

METAR text: UIII 182130Z 31009MPS 9999 -SHSN BKN012CB 00/M02 Q1006 R30/CLRD60 NOSIG RMK QFE710/0947
Conditions at: UIII (IRKUTSK , RU) observed 2130 UTC 18 April 2019
Temperature: 0.0°C (32°F)
Dewpoint: -2.0°C (28°F) [RH = 86%]
Pressure (altimeter): 29.70 inches Hg (1006.0 mb)
Winds: from the NW (310 degrees) at 20 MPH (17 knots; 8.7 m/s)
Visibility: 6 or more miles (10+ km)
Ceiling: 1200 feet AGL
Clouds: broken clouds at 1200 feet AGL
Weather: -SHSN  (light snow showers)

METAR text: UIII 182100Z 30010MPS 9999 -SHSN BKN012CB 01/M02 Q1005 R30/CLRD60 NOSIG RMK QFE709/0946
Conditions at: UIII (IRKUTSK , RU) observed 2100 UTC 18 April 2019
Temperature: 1.0°C (34°F)
Dewpoint: -2.0°C (28°F) [RH = 80%]
Pressure (altimeter): 29.68 inches Hg (1005.0 mb)
Winds: from the WNW (300 degrees) at 22 MPH (19 knots; 9.8 m/s)
Visibility: 6 or more miles (10+ km)
Ceiling: 1200 feet AGL
Clouds: broken clouds at 1200 feet AGL
Weather: -SHSN  (light snow showers)

METAR text: UIII 182030Z 30010MPS 9999 SCT026CB 02/M02 Q1004 R30/CLRD60 NOSIG RMK QFE708/0945
Conditions at: UIII (IRKUTSK , RU) observed 2030 UTC 18 April 2019
Temperature: 2.0°C (36°F)
Dewpoint: -2.0°C (28°F) [RH = 75%]
Pressure (altimeter): 29.65 inches Hg (1004.0 mb)
Winds: from the WNW (300 degrees) at 22 MPH (19 knots; 9.8 m/s)
Visibility: 6 or more miles (10+ km)
Ceiling: at least 12,000 feet AGL
Clouds: scattered clouds at 2600 feet AGL
Weather: no significant weather observed at this time

METAR text: UIII 182000Z 30008MPS 9999 SCT033CB 02/M03 Q1003 R30/CLRD60 NOSIG RMK QFE708/0944
Conditions at: UIII (IRKUTSK , RU) observed 2000 UTC 18 April 2019
Temperature: 2.0°C (36°F)
Dewpoint: -3.0°C (27°F) [RH = 69%]
Pressure (altimeter): 29.62 inches Hg (1003.0 mb)
Winds: from the WNW (300 degrees) at 18 MPH (16 knots; 8.2 m/s)
Visibility: 6 or more miles (10+ km)
Ceiling: at least 12,000 feet AGL
Clouds: scattered clouds at 3300 feet AGL
Weather: no significant weather observed at this time

METAR text: UIII 181930Z 30009G14MPS 9999 SCT033CB 03/M03 Q1001 R30/60D NOSIG RMK QFE707/0943
Conditions at: UIII (IRKUTSK , RU) observed 1930 UTC 18 April 2019
Temperature: 3.0°C (37°F)
Dewpoint: -3.0°C (27°F) [RH = 65%]
Pressure (altimeter): 29.56 inches Hg (1001.0 mb)
Winds: from the WNW (300 degrees) at 20 MPH (17 knots; 8.7 m/s)
gusting to 31 MPH (27 knots; 13.9 m/s)
Visibility: 6 or more miles (10+ km)
Ceiling: at least 12,000 feet AGL
Clouds: scattered clouds at 3300 feet AGL
Weather: no significant weather observed at this time

METAR text: UIII 181900Z 31009MPS 9999 SCT033CB 03/M03 Q1001 R30/CLRD60 NOSIG RMK QFE706/0942
Conditions at: UIII (IRKUTSK , RU) observed 1900 UTC 18 April 2019
Temperature: 3.0°C (37°F)
Dewpoint: -3.0°C (27°F) [RH = 65%]
Pressure (altimeter): 29.56 inches Hg (1001.0 mb)
Winds: from the NW (310 degrees) at 20 MPH (17 knots; 8.7 m/s)
Visibility: 6 or more miles (10+ km)
Ceiling: at least 12,000 feet AGL
Clouds: scattered clouds at 3300 feet AGL
Weather: no significant weather observed at this time

METAR text: UIII 181830Z 31011MPS 9999 SCT033CB 04/M02 Q1000 R30/60D NOSIG RMK QFE706/0941
Conditions at: UIII (IRKUTSK , RU) observed 1830 UTC 18 April 2019
Temperature: 4.0°C (39°F)
Dewpoint: -2.0°C (28°F) [RH = 65%]
Pressure (altimeter): 29.53 inches Hg (1000.0 mb)
Winds: from the NW (310 degrees) at 24 MPH (21 knots; 10.8 m/s)
Visibility: 6 or more miles (10+ km)
Ceiling: at least 12,000 feet AGL
Clouds: scattered clouds at 3300 feet AGL
Weather: no significant weather observed at this time

METAR text: UIII 181800Z 31014G21MPS 9999 BKN023CB 04/M02 Q0999 R30/CLRD60 NOSIG RMK QFE705/0940
Conditions at: UIII (IRKUTSK , RU) observed 1800 UTC 18 April 2019
Temperature: 4.0°C (39°F)
Dewpoint: -2.0°C (28°F) [RH = 65%]
Pressure (altimeter): 29.50 inches Hg (999.0 mb)
Winds: from the NW (310 degrees) at 31 MPH (27 knots; 13.9 m/s)
gusting to 47 MPH (41 knots; 21.1 m/s)
Visibility: 6 or more miles (10+ km)
Ceiling: 2300 feet AGL
Clouds: broken clouds at 2300 feet AGL
Weather: no significant weather observed at this time

METAR text: UIII 181730Z 29013G20MPS 9999 BKN023CB 05/M04 Q0997 R30/60D NOSIG RMK QFE704/0938
Conditions at: UIII (IRKUTSK , RU) observed 1730 UTC 18 April 2019
Temperature: 5.0°C (41°F)
Dewpoint: -4.0°C (25°F) [RH = 52%]
Pressure (altimeter): 29.44 inches Hg (997.0 mb)
Winds: from the WNW (290 degrees) at 29 MPH (25 knots; 12.9 m/s)
gusting to 45 MPH (39 knots; 20.1 m/s)
Visibility: 6 or more miles (10+ km)
Ceiling: 2300 feet AGL
Clouds: broken clouds at 2300 feet AGL
Weather: no significant weather observed at this time

METAR text: UIII 181700Z 26009MPS 230V290 CAVOK 06/M05 Q0994 R30/CLRD60 NOSIG RMK QFE702/0936
Conditions at: UIII (IRKUTSK , RU) observed 1700 UTC 18 April 2019
Temperature: 6.0°C (43°F)
Dewpoint: -5.0°C (23°F) [RH = 45%]
Pressure (altimeter): 29.35 inches Hg (994.0 mb)
Winds: from the W (260 degrees) at 20 MPH (17 knots; 8.7 m/s)
Visibility: 6 or more miles (10+ km)
Ceiling: ceiling and visibility are OK
Clouds: unknown
Weather: no significant weather observed at this time

METAR text: UIII 181630Z 18006MPS CAVOK 06/M04 Q0991 R12/60D NOSIG RMK QFE702/0936
Conditions at: UIII (IRKUTSK , RU) observed 1630 UTC 18 April 2019
Temperature: 6.0°C (43°F)
Dewpoint: -4.0°C (25°F) [RH = 49%]
Pressure (altimeter): 29.26 inches Hg (991.0 mb)
Winds: from the S (180 degrees) at 14 MPH (12 knots; 6.2 m/s)
Visibility: 6 or more miles (10+ km)
Ceiling: ceiling and visibility are OK
Clouds: unknown
Weather: no significant weather observed at this time

METAR text: UIII 181600Z 19006MPS CAVOK 08/M05 Q0991 R12/CLRD60 NOSIG RMK QFE702/0936
Conditions at: UIII (IRKUTSK , RU) observed 1600 UTC 18 April 2019
Temperature: 8.0°C (46°F)
Dewpoint: -5.0°C (23°F) [RH = 39%]
Pressure (altimeter): 29.26 inches Hg (991.0 mb)
Winds: from the S (190 degrees) at 14 MPH (12 knots; 6.2 m/s)
Visibility: 6 or more miles (10+ km)
Ceiling: ceiling and visibility are OK
Clouds: unknown
Weather: no significant weather observed at this time

METAR text: UIII 181530Z 20005MPS CAVOK 09/M06 Q0992 R12/60D NOSIG RMK QFE702/0936
Conditions at: UIII (IRKUTSK , RU) observed 1530 UTC 18 April 2019
Temperature: 9.0°C (48°F)
Dewpoint: -6.0°C (21°F) [RH = 34%]
Pressure (altimeter): 29.29 inches Hg (992.0 mb)
Winds: from the SSW (200 degrees) at 12 MPH (10 knots; 5.1 m/s)
Visibility: 6 or more miles (10+ km)
Ceiling: ceiling and visibility are OK
Clouds: unknown
Weather: no significant weather observed at this time

METAR text: UIII 181500Z 18005MPS CAVOK 08/M05 Q0992 R12/CLRD60 NOSIG RMK QFE702/0937
Conditions at: UIII (IRKUTSK , RU) observed 1500 UTC 18 April 2019
Temperature: 8.0°C (46°F)
Dewpoint: -5.0°C (23°F) [RH = 39%]
Pressure (altimeter): 29.29 inches Hg (992.0 mb)
Winds: from the S (180 degrees) at 12 MPH (10 knots; 5.1 m/s)
Visibility: 6 or more miles (10+ km)
Ceiling: ceiling and visibility are OK
Clouds: unknown
Weather: no significant weather observed at this time

METAR text: UIII 181430Z 18005MPS CAVOK 08/M05 Q0992 R12/60D NOSIG RMK QFE703/0937
Conditions at: UIII (IRKUTSK , RU) observed 1430 UTC 18 April 2019
Temperature: 8.0°C (46°F)
Dewpoint: -5.0°C (23°F) [RH = 39%]
Pressure (altimeter): 29.29 inches Hg (992.0 mb)
Winds: from the S (180 degrees) at 12 MPH (10 knots; 5.1 m/s)
Visibility: 6 or more miles (10+ km)
Ceiling: ceiling and visibility are OK
Clouds: unknown
Weather: no significant weather observed at this time

METAR text: UIII 181400Z 18004MPS CAVOK 07/M05 Q0993 R12/60D NOSIG RMK QFE703/0938
Conditions at: UIII (IRKUTSK , RU) observed 1400 UTC 18 April 2019
Temperature: 7.0°C (45°F)
Dewpoint: -5.0°C (23°F) [RH = 42%]
Pressure (altimeter): 29.32 inches Hg (993.0 mb)
Winds: from the S (180 degrees) at 9 MPH (8 knots; 4.1 m/s)
Visibility: 6 or more miles (10+ km)
Ceiling: ceiling and visibility are OK
Clouds: unknown
Weather: no significant weather observed at this time

METAR text: UIII 181330Z 18005MPS CAVOK 07/M05 Q0994 R12/60D NOSIG RMK QFE704/0939
Conditions at: UIII (IRKUTSK , RU) observed 1330 UTC 18 April 2019
Temperature: 7.0°C (45°F)
Dewpoint: -5.0°C (23°F) [RH = 42%]
Pressure (altimeter): 29.35 inches Hg (994.0 mb)
Winds: from the S (180 degrees) at 12 MPH (10 knots; 5.1 m/s)
Visibility: 6 or more miles (10+ km)
Ceiling: ceiling and visibility are OK
Clouds: unknown
Weather: no significant weather observed at this time

METAR text: UIII 181300Z 18005MPS CAVOK 06/M03 Q0995 R12/CLRD60 NOSIG RMK QFE704/0939
Conditions at: UIII (IRKUTSK , RU) observed 1300 UTC 18 April 2019
Temperature: 6.0°C (43°F)
Dewpoint: -3.0°C (27°F) [RH = 52%]
Pressure (altimeter): 29.38 inches Hg (995.0 mb)
Winds: from the S (180 degrees) at 12 MPH (10 knots; 5.1 m/s)
Visibility: 6 or more miles (10+ km)
Ceiling: ceiling and visibility are OK
Clouds: unknown
Weather: no significant weather observed at this time

METAR text: UIII 181230Z 18006MPS CAVOK 07/M04 Q0995 R12/CLRD60 NOSIG RMK QFE705/0940
Conditions at: UIII (IRKUTSK , RU) observed 1230 UTC 18 April 2019
Temperature: 7.0°C (45°F)
Dewpoint: -4.0°C (25°F) [RH = 45%]
Pressure (altimeter): 29.38 inches Hg (995.0 mb)
Winds: from the S (180 degrees) at 14 MPH (12 knots; 6.2 m/s)
Visibility: 6 or more miles (10+ km)
Ceiling: ceiling and visibility are OK
Clouds: unknown
Weather: no significant weather observed at this time

METAR text: UIII 181200Z VRB01MPS CAVOK 07/M05 Q0996 R12/CLRD60 NOSIG RMK QFE705/0940
Conditions at: UIII (IRKUTSK , RU) observed 1200 UTC 18 April 2019
Temperature: 7.0°C (45°F)
Dewpoint: -5.0°C (23°F) [RH = 42%]
Pressure (altimeter): 29.41 inches Hg (996.0 mb)
Winds: variable direction winds at 2 MPH (2 knots; 1.0 m/s)
Visibility: 6 or more miles (10+ km)
Ceiling: ceiling and visibility are OK
Clouds: unknown
Weather: no significant weather observed at this time

METAR text: UIII 181130Z 20003MPS CAVOK 08/M05 Q0996 R12/60D NOSIG RMK QFE705/0941
Conditions at: UIII (IRKUTSK , RU) observed 1130 UTC 18 April 2019
Temperature: 8.0°C (46°F)
Dewpoint: -5.0°C (23°F) [RH = 39%]
Pressure (altimeter): 29.41 inches Hg (996.0 mb)
Winds: from the SSW (200 degrees) at 7 MPH (6 knots; 3.1 m/s)
Visibility: 6 or more miles (10+ km)
Ceiling: ceiling and visibility are OK
Clouds: unknown
Weather: no significant weather observed at this time

METAR text: UIII 181100Z 20004MPS CAVOK 09/M04 Q0997 R12/CLRD60 NOSIG RMK QFE706/0941
Conditions at: UIII (IRKUTSK , RU) observed 1100 UTC 18 April 2019
Temperature: 9.0°C (48°F)
Dewpoint: -4.0°C (25°F) [RH = 40%]
Pressure (altimeter): 29.44 inches Hg (997.0 mb)
Winds: from the SSW (200 degrees) at 9 MPH (8 knots; 4.1 m/s)
Visibility: 6 or more miles (10+ km)
Ceiling: ceiling and visibility are OK
Clouds: unknown
Weather: no significant weather observed at this time

METAR text: UIII 181030Z 18006MPS CAVOK 11/M05 Q0998 R12/60D NOSIG RMK QFE706/0942
Conditions at: UIII (IRKUTSK , RU) observed 1030 UTC 18 April 2019
Temperature: 11.0°C (52°F)
Dewpoint: -5.0°C (23°F) [RH = 32%]
Pressure (altimeter): 29.47 inches Hg (998.0 mb)
Winds: from the S (180 degrees) at 14 MPH (12 knots; 6.2 m/s)
Visibility: 6 or more miles (10+ km)
Ceiling: ceiling and visibility are OK
Clouds: unknown
Weather: no significant weather observed at this time

METAR text: UIII 181000Z 17006MPS CAVOK 12/M05 Q0998 R12/60D NOSIG RMK QFE707/0943
Conditions at: UIII (IRKUTSK , RU) observed 1000 UTC 18 April 2019
Temperature: 12.0°C (54°F)
Dewpoint: -5.0°C (23°F) [RH = 30%]
Pressure (altimeter): 29.47 inches Hg (998.0 mb)
Winds: from the S (170 degrees) at 14 MPH (12 knots; 6.2 m/s)
Visibility: 6 or more miles (10+ km)
Ceiling: ceiling and visibility are OK
Clouds: unknown
Weather: no significant weather observed at this time

METAR text: UIII 180930Z 16009MPS CAVOK 12/M06 Q0999 R12/CLRD60 NOSIG RMK QFE708/0944
Conditions at: UIII (IRKUTSK , RU) observed 0930 UTC 18 April 2019
Temperature: 12.0°C (54°F)
Dewpoint: -6.0°C (21°F) [RH = 28%]
Pressure (altimeter): 29.50 inches Hg (999.0 mb)
Winds: from the SSE (160 degrees) at 20 MPH (17 knots; 8.7 m/s)
Visibility: 6 or more miles (10+ km)
Ceiling: ceiling and visibility are OK
Clouds: unknown
Weather: no significant weather observed at this time

METAR text: UIII 180900Z 15009MPS CAVOK 13/M05 Q1000 R12/60D NOSIG RMK QFE708/0944
Conditions at: UIII (IRKUTSK , RU) observed 0900 UTC 18 April 2019
Temperature: 13.0°C (55°F)
Dewpoint: -5.0°C (23°F) [RH = 28%]
Pressure (altimeter): 29.53 inches Hg (1000.0 mb)
Winds: from the SSE (150 degrees) at 20 MPH (17 knots; 8.7 m/s)
Visibility: 6 or more miles (10+ km)
Ceiling: ceiling and visibility are OK
Clouds: unknown
Weather: no significant weather observed at this time

METAR text: UIII 180830Z 15010MPS CAVOK 15/M05 Q1001 R12/60D NOSIG RMK QFE709/0945
Conditions at: UIII (IRKUTSK , RU) observed 0830 UTC 18 April 2019
Temperature: 15.0°C (59°F)
Dewpoint: -5.0°C (23°F) [RH = 25%]
Pressure (altimeter): 29.56 inches Hg (1001.0 mb)
Winds: from the SSE (150 degrees) at 22 MPH (19 knots; 9.8 m/s)
Visibility: 6 or more miles (10+ km)
Ceiling: ceiling and visibility are OK
Clouds: unknown
Weather: no significant weather observed at this time

METAR text: UIII 180800Z 15008MPS CAVOK 15/M05 Q1002 R12/CLRD60 NOSIG RMK QFE710/0946
Conditions at: UIII (IRKUTSK , RU) observed 0800 UTC 18 April 2019
Temperature: 15.0°C (59°F)
Dewpoint: -5.0°C (23°F) [RH = 25%]
Pressure (altimeter): 29.59 inches Hg (1002.0 mb)
Winds: from the SSE (150 degrees) at 18 MPH (16 knots; 8.2 m/s)
Visibility: 6 or more miles (10+ km)
Ceiling: ceiling and visibility are OK
Clouds: unknown
Weather: no significant weather observed at this time

METAR text: UIII 180730Z 16007MPS CAVOK 15/M05 Q1003 R12/CLRD60 NOSIG RMK QFE710/0947
Conditions at: UIII (IRKUTSK , RU) observed 0730 UTC 18 April 2019
Temperature: 15.0°C (59°F)
Dewpoint: -5.0°C (23°F) [RH = 25%]
Pressure (altimeter): 29.62 inches Hg (1003.0 mb)
Winds: from the SSE (160 degrees) at 16 MPH (14 knots; 7.2 m/s)
Visibility: 6 or more miles (10+ km)
Ceiling: ceiling and visibility are OK
Clouds: unknown
Weather: no significant weather observed at this time

METAR text: UIII 180700Z 16007MPS CAVOK 14/M05 Q1004 R12/CLRD60 NOSIG RMK QFE711/0948
Conditions at: UIII (IRKUTSK , RU) observed 0700 UTC 18 April 2019
Temperature: 14.0°C (57°F)
Dewpoint: -5.0°C (23°F) [RH = 26%]
Pressure (altimeter): 29.65 inches Hg (1004.0 mb)
Winds: from the SSE (160 degrees) at 16 MPH (14 knots; 7.2 m/s)
Visibility: 6 or more miles (10+ km)
Ceiling: ceiling and visibility are OK
Clouds: unknown
Weather: no significant weather observed at this time

METAR text: UIII 180630Z 16008MPS CAVOK 13/M05 Q1005 R12/60D NOSIG RMK QFE711/0949
Conditions at: UIII (IRKUTSK , RU) observed 0630 UTC 18 April 2019
Temperature: 13.0°C (55°F)
Dewpoint: -5.0°C (23°F) [RH = 28%]
Pressure (altimeter): 29.68 inches Hg (1005.0 mb)
Winds: from the SSE (160 degrees) at 18 MPH (16 knots; 8.2 m/s)
Visibility: 6 or more miles (10+ km)
Ceiling: ceiling and visibility are OK
Clouds: unknown
Weather: no significant weather observed at this time

METAR text: UIII 180600Z 16007MPS CAVOK 13/M05 Q1005 R12/CLRD60 NOSIG RMK QFE712/0949
Conditions at: UIII (IRKUTSK , RU) observed 0600 UTC 18 April 2019
Temperature: 13.0°C (55°F)
Dewpoint: -5.0°C (23°F) [RH = 28%]
Pressure (altimeter): 29.68 inches Hg (1005.0 mb)
Winds: from the SSE (160 degrees) at 16 MPH (14 knots; 7.2 m/s)
Visibility: 6 or more miles (10+ km)
Ceiling: ceiling and visibility are OK
Clouds: unknown
Weather: no significant weather observed at this time

METAR text: UIII 180530Z 17006MPS CAVOK 12/M05 Q1006 R12/CLRD60 NOSIG RMK QFE712/0950
Conditions at: UIII (IRKUTSK , RU) observed 0530 UTC 18 April 2019
Temperature: 12.0°C (54°F)
Dewpoint: -5.0°C (23°F) [RH = 30%]
Pressure (altimeter): 29.70 inches Hg (1006.0 mb)
Winds: from the S (170 degrees) at 14 MPH (12 knots; 6.2 m/s)
Visibility: 6 or more miles (10+ km)
Ceiling: ceiling and visibility are OK
Clouds: unknown
Weather: no significant weather observed at this time

METAR text: UIII 180500Z 16006MPS CAVOK 11/M04 Q1007 R12/60D NOSIG RMK QFE713/0951
Conditions at: UIII (IRKUTSK , RU) observed 0500 UTC 18 April 2019
Temperature: 11.0°C (52°F)
Dewpoint: -4.0°C (25°F) [RH = 35%]
Pressure (altimeter): 29.73 inches Hg (1007.0 mb)
Winds: from the SSE (160 degrees) at 14 MPH (12 knots; 6.2 m/s)
Visibility: 6 or more miles (10+ km)
Ceiling: ceiling and visibility are OK
Clouds: unknown
Weather: no significant weather observed at this time

METAR text: UIII 180430Z 16007MPS CAVOK 10/M05 Q1007 R12/60D NOSIG RMK QFE713/0951
Conditions at: UIII (IRKUTSK , RU) observed 0430 UTC 18 April 2019
Temperature: 10.0°C (50°F)
Dewpoint: -5.0°C (23°F) [RH = 34%]
Pressure (altimeter): 29.73 inches Hg (1007.0 mb)
Winds: from the SSE (160 degrees) at 16 MPH (14 knots; 7.2 m/s)
Visibility: 6 or more miles (10+ km)
Ceiling: ceiling and visibility are OK
Clouds: unknown
Weather: no significant weather observed at this time

METAR text: UIII 180400Z 16007MPS CAVOK 09/M05 Q1008 R12/60D NOSIG RMK QFE714/0952
Conditions at: UIII (IRKUTSK , RU) observed 0400 UTC 18 April 2019
Temperature: 9.0°C (48°F)
Dewpoint: -5.0°C (23°F) [RH = 37%]
Pressure (altimeter): 29.76 inches Hg (1008.0 mb)
Winds: from the SSE (160 degrees) at 16 MPH (14 knots; 7.2 m/s)
Visibility: 6 or more miles (10+ km)
Ceiling: ceiling and visibility are OK
Clouds: unknown
Weather: no significant weather observed at this time

METAR text: UIII 180330Z 16007MPS CAVOK 08/M05 Q1009 R12/60D NOSIG RMK QFE714/0953
Conditions at: UIII (IRKUTSK , RU) observed 0330 UTC 18 April 2019
Temperature: 8.0°C (46°F)
Dewpoint: -5.0°C (23°F) [RH = 39%]
Pressure (altimeter): 29.79 inches Hg (1009.0 mb)
Winds: from the SSE (160 degrees) at 16 MPH (14 knots; 7.2 m/s)
Visibility: 6 or more miles (10+ km)
Ceiling: ceiling and visibility are OK
Clouds: unknown
Weather: no significant weather observed at this time

METAR text: UIII 180300Z 16007MPS CAVOK 07/M06 Q1009 R12/CLRD60 NOSIG RMK QFE715/0953
Conditions at: UIII (IRKUTSK , RU) observed 0300 UTC 18 April 2019
Temperature: 7.0°C (45°F)
Dewpoint: -6.0°C (21°F) [RH = 39%]
Pressure (altimeter): 29.79 inches Hg (1009.0 mb)
Winds: from the SSE (160 degrees) at 16 MPH (14 knots; 7.2 m/s)
Visibility: 6 or more miles (10+ km)
Ceiling: ceiling and visibility are OK
Clouds: unknown
Weather: no significant weather observed at this time

METAR text: UIII 180230Z 16008MPS CAVOK 06/M07 Q1009 R12/60D NOSIG RMK QFE715/0953
Conditions at: UIII (IRKUTSK , RU) observed 0230 UTC 18 April 2019
Temperature: 6.0°C (43°F)
Dewpoint: -7.0°C (19°F) [RH = 39%]
Pressure (altimeter): 29.79 inches Hg (1009.0 mb)
Winds: from the SSE (160 degrees) at 18 MPH (16 knots; 8.2 m/s)
Visibility: 6 or more miles (10+ km)
Ceiling: ceiling and visibility are OK
Clouds: unknown
Weather: no significant weather observed at this time

METAR text: UIII 180200Z 16007MPS CAVOK 05/M06 Q1009 R12/CLRD60 NOSIG RMK QFE715/0953
Conditions at: UIII (IRKUTSK , RU) observed 0200 UTC 18 April 2019
Temperature: 5.0°C (41°F)
Dewpoint: -6.0°C (21°F) [RH = 45%]
Pressure (altimeter): 29.79 inches Hg (1009.0 mb)
Winds: from the SSE (160 degrees) at 16 MPH (14 knots; 7.2 m/s)
Visibility: 6 or more miles (10+ km)
Ceiling: ceiling and visibility are OK
Clouds: unknown
Weather: no significant weather observed at this time

METAR text: UIII 180130Z 16005MPS CAVOK 04/M07 Q1010 R12/60D NOSIG RMK QFE715/0954
Conditions at: UIII (IRKUTSK , RU) observed 0130 UTC 18 April 2019
Temperature: 4.0°C (39°F)
Dewpoint: -7.0°C (19°F) [RH = 44%]
Pressure (altimeter): 29.82 inches Hg (1010.0 mb)
Winds: from the SSE (160 degrees) at 12 MPH (10 knots; 5.1 m/s)
Visibility: 6 or more miles (10+ km)
Ceiling: ceiling and visibility are OK
Clouds: unknown
Weather: no significant weather observed at this time

METAR text: UIII 180100Z 15005MPS CAVOK 03/M06 Q1010 R12/CLRD60 NOSIG RMK QFE715/0954
Conditions at: UIII (IRKUTSK , RU) observed 0100 UTC 18 April 2019
Temperature: 3.0°C (37°F)
Dewpoint: -6.0°C (21°F) [RH = 52%]
Pressure (altimeter): 29.82 inches Hg (1010.0 mb)
Winds: from the SSE (150 degrees) at 12 MPH (10 knots; 5.1 m/s)
Visibility: 6 or more miles (10+ km)
Ceiling: ceiling and visibility are OK
Clouds: unknown
Weather: no significant weather observed at this time

METAR text: UIII 180030Z 16005MPS CAVOK 02/M07 Q1011 R12/CLRD60 NOSIG RMK QFE716/0955
Conditions at: UIII (IRKUTSK , RU) observed 0030 UTC 18 April 2019
Temperature: 2.0°C (36°F)
Dewpoint: -7.0°C (19°F) [RH = 51%]
Pressure (altimeter): 29.85 inches Hg (1011.0 mb)
Winds: from the SSE (160 degrees) at 12 MPH (10 knots; 5.1 m/s)
Visibility: 6 or more miles (10+ km)
Ceiling: ceiling and visibility are OK
Clouds: unknown
Weather: no significant weather observed at this time

METAR text: UIII 180000Z 15003MPS CAVOK 01/M07 Q1011 R12/60D NOSIG RMK QFE716/0955
Conditions at: UIII (IRKUTSK , RU) observed 0000 UTC 18 April 2019
Temperature: 1.0°C (34°F)
Dewpoint: -7.0°C (19°F) [RH = 55%]
Pressure (altimeter): 29.85 inches Hg (1011.0 mb)
Winds: from the SSE (150 degrees) at 7 MPH (6 knots; 3.1 m/s)
Visibility: 6 or more miles (10+ km)
Ceiling: ceiling and visibility are OK
Clouds: unknown
Weather: no significant weather observed at this time

METAR text: UIII 172330Z 16003MPS CAVOK M00/M08 Q1011 R12/60D NOSIG RMK QFE716/0955
Conditions at: UIII (IRKUTSK , RU) observed 2330 UTC 17 April 2019
Temperature: 0.0°C (32°F)
Dewpoint: -8.0°C (18°F) [RH = 55%]
Pressure (altimeter): 29.85 inches Hg (1011.0 mb)
Winds: from the SSE (160 degrees) at 7 MPH (6 knots; 3.1 m/s)
Visibility: 6 or more miles (10+ km)
Ceiling: ceiling and visibility are OK
Clouds: unknown
Weather: no significant weather observed at this time

METAR text: UIII 172300Z 15002MPS CAVOK M02/M08 Q1011 R12/60D NOSIG RMK QFE716/0955
Conditions at: UIII (IRKUTSK , RU) observed 2300 UTC 17 April 2019
Temperature: -2.0°C (28°F)
Dewpoint: -8.0°C (18°F) [RH = 63%]
Pressure (altimeter): 29.85 inches Hg (1011.0 mb)
Winds: from the SSE (150 degrees) at 5 MPH (4 knots; 2.1 m/s)
Visibility: 6 or more miles (10+ km)
Ceiling: ceiling and visibility are OK
Clouds: unknown
Weather: no significant weather observed at this time

METAR text: UIII 172230Z 13002MPS 060V150 CAVOK M03/M09 Q1011 R12/60D NOSIG RMK QFE716/0954
Conditions at: UIII (IRKUTSK , RU) observed 2230 UTC 17 April 2019
Temperature: -3.0°C (27°F)
Dewpoint: -9.0°C (16°F) [RH = 63%]
Pressure (altimeter): 29.85 inches Hg (1011.0 mb)
Winds: from the SE (130 degrees) at 5 MPH (4 knots; 2.1 m/s)
Visibility: 6 or more miles (10+ km)
Ceiling: ceiling and visibility are OK
Clouds: unknown
Weather: no significant weather observed at this time

METAR text: UIII 172200Z 12002MPS 080V170 CAVOK M03/M09 Q1011 R12/60D NOSIG RMK QFE716/0954
Conditions at: UIII (IRKUTSK , RU) observed 2200 UTC 17 April 2019
Temperature: -3.0°C (27°F)
Dewpoint: -9.0°C (16°F) [RH = 63%]
Pressure (altimeter): 29.85 inches Hg (1011.0 mb)
Winds: from the ESE (120 degrees) at 5 MPH (4 knots; 2.1 m/s)
Visibility: 6 or more miles (10+ km)
Ceiling: ceiling and visibility are OK
Clouds: unknown
Weather: no significant weather observed at this time

METAR text: UIII 172130Z 13002MPS CAVOK M04/M09 Q1011 R12/CLRD60 NOSIG RMK QFE716/0955
Conditions at: UIII (IRKUTSK , RU) observed 2130 UTC 17 April 2019
Temperature: -4.0°C (25°F)
Dewpoint: -9.0°C (16°F) [RH = 68%]
Pressure (altimeter): 29.85 inches Hg (1011.0 mb)
Winds: from the SE (130 degrees) at 5 MPH (4 knots; 2.1 m/s)
Visibility: 6 or more miles (10+ km)
Ceiling: ceiling and visibility are OK
Clouds: unknown
Weather: no significant weather observed at this time

Forecast for: UIII (IRKUTSK , RU)
Text: TAF UIII 190800Z 1909/2009 30005MPS CAVOK
Forecast period: 0900 UTC 19 April 2019 to 0900 UTC 20 April 2019
Forecast type: FROM: standard forecast or significant change
Winds: from the WNW (300 degrees) at 12 MPH (10 knots; 5.1 m/s)
Visibility: 6 or more miles 10+ km)
Ceiling: unknown
Clouds: missing
Weather: NSW  (no significant weather)